Time;durP1;ratioP1;P1;durP2;ratioP2;P2;SDS_P1;SDS_P2;PMS_P1;PMS_P2;Temp;Humidity;BMP_temperature;BMP_pressure;BME280_temperature;BME280_humidity;BME280_pressure;Samples;Min_cycle;Max_cycle;Signal;HPM_P1;HPM_P2
2022/03/22 00:01:25;;;;;;;28.27;20.90;;;12.20;96.70;;;;;;5044478;28;20300;-41
2022/03/22 00:03:51;;;;;;;30.23;20.67;;;12.20;96.70;;;;;;5043525;28;20112;-40
2022/03/22 00:06:20;;;;;;;29.63;20.70;;;12.20;96.70;;;;;;5044995;28;20048;-43
2022/03/22 00:08:47;;;;;;;30.38;21.67;;;12.20;97.00;;;;;;5044159;28;20032;-43
2022/03/22 00:11:13;;;;;;;31.63;21.73;;;12.20;96.80;;;;;;5047828;28;20392;-42
2022/03/22 00:13:40;;;;;;;27.17;20.00;;;12.20;96.70;;;;;;5048963;28;20029;-42
2022/03/22 00:16:07;;;;;;;24.65;17.98;;;12.20;96.70;;;;;;5046491;28;20430;-42
2022/03/22 00:18:34;;;;;;;26.27;19.25;;;12.20;96.70;;;;;;5048271;28;20021;-43
2022/03/22 00:20:59;;;;;;;25.45;17.33;;;12.20;96.70;;;;;;5047562;28;20032;-42
2022/03/22 00:23:25;;;;;;;23.50;17.52;;;12.20;96.70;;;;;;5047312;28;20021;-41
2022/03/22 00:25:50;;;;;;;24.10;17.30;;;12.20;96.60;;;;;;5047707;28;20016;-42
2022/03/22 00:28:16;;;;;;;22.77;16.92;;;12.20;96.60;;;;;;5048287;28;20035;-38
2022/03/22 00:30:42;;;;;;;24.20;18.52;;;12.20;96.60;;;;;;5047071;28;20048;-42
2022/03/22 00:33:08;;;;;;;23.08;17.88;;;12.20;96.60;;;;;;5047336;28;20179;-42
2022/03/22 00:35:36;;;;;;;28.02;19.52;;;12.20;96.60;;;;;;5048114;28;20598;-41
2022/03/22 00:38:11;;;;;;;25.65;19.23;;;12.20;96.60;;;;;;5046372;28;20040;-41
2022/03/22 00:40:38;;;;;;;24.60;18.23;;;12.20;96.60;;;;;;5048197;28;20104;-42
2022/03/22 00:43:04;;;;;;;23.52;17.20;;;12.20;96.60;;;;;;5047190;28;20021;-40
2022/03/22 00:45:34;;;;;;;24.92;18.27;;;12.20;96.80;;;;;;5046670;28;20074;-43
2022/03/22 00:48:02;;;;;;;27.05;17.88;;;12.10;96.50;;;;;;5046995;28;20025;-41
2022/03/22 00:50:30;;;;;;;23.08;16.02;;;12.10;96.60;;;;;;5048025;28;20487;-41
2022/03/22 00:52:57;;;;;;;22.67;16.95;;;12.10;96.60;;;;;;5046250;28;20021;-43
2022/03/22 00:55:27;;;;;;;22.40;16.85;;;12.00;96.60;;;;;;5047701;28;20112;-42
2022/03/22 00:57:53;;;;;;;23.30;16.77;;;12.00;96.60;;;;;;5046914;28;20045;-43
2022/03/22 01:00:20;;;;;;;23.42;16.83;;;12.00;96.60;;;;;;5046792;28;20025;-42
2022/03/22 01:02:49;;;;;;;26.85;17.92;;;12.00;96.70;;;;;;5046435;28;20041;-41
2022/03/22 01:05:17;;;;;;;23.15;16.30;;;12.00;96.70;;;;;;5047085;28;20025;-41
2022/03/22 01:07:45;;;;;;;21.42;17.02;;;11.90;96.70;;;;;;5046531;28;20431;-43
2022/03/22 01:10:13;;;;;;;20.38;15.93;;;11.90;96.70;;;;;;5046891;28;20071;-41
2022/03/22 01:12:41;;;;;;;23.00;16.90;;;11.90;96.70;;;;;;5046887;28;20025;-41
2022/03/22 01:15:11;;;;;;;20.00;16.20;;;11.90;96.70;;;;;;5047152;28;20098;-41
2022/03/22 01:17:37;;;;;;;21.65;16.70;;;11.80;96.70;;;;;;5047221;28;20064;-41
2022/03/22 01:20:05;;;;;;;23.20;17.92;;;11.80;96.70;;;;;;5046176;28;20103;-43
2022/03/22 01:22:32;;;;;;;22.48;17.38;;;11.70;96.70;;;;;;5046563;28;20024;-41
2022/03/22 01:24:57;;;;;;;24.85;17.65;;;11.80;96.80;;;;;;5046811;28;20052;-38
2022/03/22 01:27:23;;;;;;;24.38;17.20;;;11.70;96.70;;;;;;5046907;28;20463;-41
2022/03/22 01:29:49;;;;;;;23.63;17.55;;;11.70;96.70;;;;;;5046693;28;20025;-43
2022/03/22 01:32:15;;;;;;;26.70;18.83;;;11.70;96.80;;;;;;5047393;28;20075;-38
2022/03/22 01:34:42;;;;;;;23.63;16.30;;;11.70;96.80;;;;;;5044939;28;20025;-42
2022/03/22 01:37:08;;;;;;;23.73;16.58;;;11.60;96.80;;;;;;5046573;28;20488;-40
2022/03/22 01:39:34;;;;;;;22.30;17.63;;;11.60;96.80;;;;;;5047260;28;20028;-40
2022/03/22 01:42:00;;;;;;;23.65;16.88;;;11.60;96.90;;;;;;5045860;28;20077;-42
2022/03/22 01:44:28;;;;;;;24.50;16.90;;;11.50;96.90;;;;;;5047027;28;20025;-41
2022/03/22 01:46:58;;;;;;;22.08;16.73;;;11.50;96.90;;;;;;5045861;28;20029;-42
2022/03/22 01:49:24;;;;;;;27.85;18.30;;;11.50;97.00;;;;;;5046272;28;20031;-42
2022/03/22 01:51:51;;;;;;;25.55;18.45;;;11.50;97.10;;;;;;5046167;28;20033;-40
2022/03/22 01:54:18;;;;;;;29.98;18.75;;;11.40;97.10;;;;;;5046006;28;20407;-42
2022/03/22 01:56:44;;;;;;;22.15;17.00;;;11.40;97.10;;;;;;5045566;28;20052;-42
2022/03/22 01:59:10;;;;;;;19.38;14.77;;;11.40;97.10;;;;;;5046642;28;20025;-42
2022/03/22 02:07:09;;;;;;;20.95;15.50;;;11.30;97.10;;;;;;5043918;28;20079;-41
2022/03/22 02:09:35;;;;;;;19.85;14.27;;;11.30;97.10;;;;;;5045770;28;20040;-42
2022/03/22 02:12:00;;;;;;;23.58;16.70;;;11.20;97.10;;;;;;5046047;28;20484;-42
2022/03/22 02:14:27;;;;;;;21.02;15.23;;;11.20;97.20;;;;;;5046308;28;20060;-43
2022/03/22 02:16:52;;;;;;;21.13;15.73;;;11.20;97.20;;;;;;5044849;28;20033;-43
2022/03/22 02:19:18;;;;;;;21.75;15.40;;;11.20;97.20;;;;;;5046734;28;20040;-42
2022/03/22 02:21:45;;;;;;;24.70;15.85;;;11.10;97.10;;;;;;5045443;28;20104;-45
2022/03/22 02:24:10;;;;;;;22.67;16.38;;;11.10;97.10;;;;;;5045824;28;20025;-44
2022/03/22 02:26:39;;;;;;;22.25;16.30;;;11.10;97.20;;;;;;5046108;28;20071;-42
2022/03/22 02:29:05;;;;;;;20.85;15.57;;;11.10;97.20;;;;;;5045350;28;20144;-41
2022/03/22 02:31:32;;;;;;;23.85;16.70;;;11.10;97.20;;;;;;5045286;28;20059;-40
2022/03/22 02:33:58;;;;;;;24.85;16.67;;;11.00;97.20;;;;;;5044457;28;20025;-41
2022/03/22 02:36:24;;;;;;;25.02;16.80;;;11.00;97.20;;;;;;5045597;28;20044;-42
2022/03/22 02:38:51;;;;;;;23.48;16.67;;;11.00;97.20;;;;;;5045324;28;20024;-41
2022/03/22 02:41:22;;;;;;;24.50;16.73;;;10.90;97.20;;;;;;5045723;28;20124;-41
2022/03/22 02:43:50;;;;;;;22.02;16.67;;;10.90;97.30;;;;;;5044371;28;20078;-38
2022/03/22 02:46:15;;;;;;;23.13;17.48;;;10.90;97.30;;;;;;5045819;28;20027;-41
2022/03/22 02:48:41;;;;;;;23.17;16.95;;;10.90;97.40;;;;;;5045208;28;20025;-40
2022/03/22 02:51:07;;;;;;;21.63;16.55;;;10.80;97.40;;;;;;5045080;28;20028;-41
2022/03/22 02:53:33;;;;;;;22.25;16.42;;;10.80;97.40;;;;;;5045516;28;20786;-44
2022/03/22 02:55:59;;;;;;;21.88;16.73;;;10.70;97.40;;;;;;5044751;28;20040;-40
2022/03/22 02:58:25;;;;;;;22.70;17.13;;;10.60;97.50;;;;;;5044522;28;20033;-41
2022/03/22 03:00:50;;;;;;;21.88;16.20;;;10.60;97.50;;;;;;5045437;28;20021;-43
2022/03/22 03:03:20;;;;;;;24.55;17.58;;;10.60;97.60;;;;;;5045440;28;20020;-42
2022/03/22 03:05:46;;;;;;;22.65;16.88;;;10.50;97.60;;;;;;5024476;28;20061;-42
2022/03/22 03:08:11;;;;;;;24.35;17.67;;;10.50;97.60;;;;;;5039913;28;20112;-41
2022/03/22 03:10:37;;;;;;;24.70;17.77;;;10.50;97.70;;;;;;5045151;28;20037;-42
2022/03/22 03:13:05;;;;;;;23.63;17.25;;;10.40;97.70;;;;;;5044107;28;20029;-42
2022/03/22 03:15:30;;;;;;;22.63;17.33;;;10.40;97.80;;;;;;5045983;28;20414;-42
2022/03/22 03:17:56;;;;;;;26.33;18.23;;;10.30;97.80;;;;;;5044747;28;20012;-43
2022/03/22 03:20:22;;;;;;;22.40;17.10;;;10.30;97.80;;;;;;5044828;28;20052;-41
2022/03/22 03:22:47;;;;;;;23.33;16.95;;;10.30;97.90;;;;;;5044478;28;20157;-42
2022/03/22 03:25:13;;;;;;;20.90;15.77;;;10.30;97.90;;;;;;5045321;28;20027;-43
2022/03/22 03:27:39;;;;;;;25.13;16.90;;;10.30;97.80;;;;;;5044599;28;20573;-40
2022/03/22 03:30:06;;;;;;;18.65;14.65;;;10.30;97.80;;;;;;5045058;28;20024;-41
2022/03/22 03:32:32;;;;;;;20.60;15.02;;;10.30;97.80;;;;;;5045561;28;20021;-42
2022/03/22 03:34:57;;;;;;;22.48;16.13;;;10.30;97.80;;;;;;5043511;28;20033;-41
2022/03/22 03:37:24;;;;;;;23.63;17.45;;;10.40;97.80;;;;;;5045171;28;20103;-42
2022/03/22 03:39:50;;;;;;;23.50;17.52;;;10.30;97.70;;;;;;5044171;28;20033;-40
2022/03/22 03:42:16;;;;;;;24.42;17.33;;;10.30;97.80;;;;;;5044357;28;20060;-43
2022/03/22 03:47:25;;;;;;;23.08;16.85;;;10.30;97.80;;;;;;5047992;28;20044;-41
2022/03/22 03:49:53;;;;;;;22.35;17.23;;;10.30;97.80;;;;;;5048079;28;20025;-40
2022/03/22 03:52:30;;;;;;;22.05;16.30;;;10.20;97.80;;;;;;5049326;28;20103;-42
2022/03/22 03:54:56;;;;;;;24.58;15.88;;;10.20;98.10;;;;;;5047117;28;20103;-40
2022/03/22 03:57:23;;;;;;;25.67;16.50;;;10.20;97.80;;;;;;5048732;28;20843;-42
2022/03/22 03:59:49;;;;;;;24.48;17.58;;;10.20;97.80;;;;;;5047824;28;20028;-40
2022/03/22 04:02:16;;;;;;;23.00;16.20;;;10.20;97.80;;;;;;5048556;28;20040;-41
2022/03/22 04:04:42;;;;;;;23.58;17.02;;;10.20;97.80;;;;;;5047797;28;20013;-43
2022/03/22 04:07:10;;;;;;;23.88;16.90;;;10.20;97.80;;;;;;5048883;28;20086;-42
2022/03/22 04:09:37;;;;;;;21.48;16.17;;;10.20;97.80;;;;;;5047322;28;20478;-41
2022/03/22 04:12:03;;;;;;;20.23;15.75;;;10.10;97.80;;;;;;5047565;28;20060;-41
2022/03/22 04:14:29;;;;;;;19.88;15.32;;;10.10;97.90;;;;;;5048511;28;20514;-42
2022/03/22 04:16:56;;;;;;;22.73;16.48;;;10.10;97.90;;;;;;5046911;28;20446;-43
2022/03/22 04:19:22;;;;;;;22.23;15.85;;;10.00;97.90;;;;;;5048143;28;20104;-42
2022/03/22 04:21:48;;;;;;;24.40;16.83;;;10.00;98.20;;;;;;5047879;28;20071;-41
2022/03/22 04:24:14;;;;;;;24.17;16.77;;;9.90;98.00;;;;;;5047516;28;20024;-41
2022/03/22 04:26:44;;;;;;;24.73;17.08;;;9.90;98.10;;;;;;5048280;28;20025;-42
2022/03/22 04:34:41;;;;;;;22.50;16.55;;;9.80;98.20;;;;;;5048147;28;20091;-41
2022/03/22 04:37:07;;;;;;;23.25;16.33;;;9.80;98.20;;;;;;5047153;28;20043;-40
2022/03/22 04:39:33;;;;;;;22.17;16.02;;;9.80;98.20;;;;;;5048544;28;20029;-41
2022/03/22 04:42:01;;;;;;;20.98;15.43;;;9.70;98.20;;;;;;5047292;28;20109;-40
2022/03/22 04:44:28;;;;;;;20.48;16.25;;;9.70;98.30;;;;;;5048270;28;20028;-40
2022/03/22 04:46:54;;;;;;;23.13;17.15;;;9.60;98.20;;;;;;5046999;28;20044;-41
2022/03/22 04:49:20;;;;;;;22.50;16.92;;;9.60;98.30;;;;;;5047711;28;20556;-41
2022/03/22 04:57:15;;;;;;;21.63;15.95;;;9.60;98.40;;;;;;5044720;28;20138;-41
2022/03/22 04:59:42;;;;;;;24.05;17.10;;;9.60;98.40;;;;;;5047409;28;20032;-42
2022/03/22 05:02:08;;;;;;;23.98;16.48;;;9.60;98.40;;;;;;5047453;28;20033;-42
2022/03/22 05:04:34;;;;;;;22.23;16.20;;;9.60;98.40;;;;;;5047265;28;20059;-38
2022/03/22 05:07:00;;;;;;;24.42;17.48;;;9.70;98.40;;;;;;5047214;28;20909;-40
2022/03/22 05:09:26;;;;;;;24.38;16.77;;;9.70;98.30;;;;;;5047524;28;20452;-41
2022/03/22 05:11:51;;;;;;;21.67;16.83;;;9.80;98.30;;;;;;5046321;28;20043;-40
2022/03/22 05:14:17;;;;;;;22.40;16.95;;;9.80;98.20;;;;;;5047668;28;20032;-42
2022/03/22 05:16:45;;;;;;;24.00;17.35;;;9.90;98.10;;;;;;5046931;28;20044;-41
2022/03/22 05:19:13;;;;;;;21.98;16.83;;;9.90;98.10;;;;;;5046923;28;20029;-42
2022/03/22 05:21:40;;;;;;;22.15;16.35;;;10.00;98.00;;;;;;5047744;28;20447;-41
2022/03/22 05:24:09;;;;;;;23.10;16.20;;;10.00;98.00;;;;;;5046821;28;20721;-42
2022/03/22 05:26:34;;;;;;;24.83;16.00;;;10.10;97.90;;;;;;5046258;28;20090;-41
2022/03/22 05:29:04;;;;;;;21.00;15.63;;;10.10;97.90;;;;;;5046821;28;20384;-41
2022/03/22 05:31:30;;;;;;;22.65;16.60;;;10.10;97.80;;;;;;5047097;28;20685;-41
2022/03/22 05:33:55;;;;;;;23.60;15.52;;;10.10;97.80;;;;;;5045808;28;20108;-41
2022/03/22 05:36:21;;;;;;;23.50;17.00;;;10.10;97.80;;;;;;5047209;28;20033;-41
2022/03/22 05:38:46;;;;;;;22.63;16.63;;;10.10;97.70;;;;;;5045989;28;20423;-41
2022/03/22 05:41:12;;;;;;;22.60;15.90;;;10.20;97.70;;;;;;5046349;28;20025;-41
2022/03/22 05:43:38;;;;;;;21.35;15.88;;;10.20;97.70;;;;;;5046845;28;20236;-41
2022/03/22 05:46:04;;;;;;;18.60;14.15;;;10.20;97.60;;;;;;5026411;28;20064;-41
2022/03/22 05:48:30;;;;;;;21.33;15.80;;;10.20;97.60;;;;;;5040276;28;20057;-41
2022/03/22 05:50:56;;;;;;;20.92;14.73;;;10.20;97.50;;;;;;5046399;28;20048;-41
2022/03/22 05:53:22;;;;;;;18.00;13.30;;;10.30;97.50;;;;;;5046355;28;20136;-42
2022/03/22 05:55:48;;;;;;;19.08;14.52;;;10.30;97.50;;;;;;5045547;28;20427;-42
2022/03/22 05:58:14;;;;;;;22.35;16.05;;;10.30;97.40;;;;;;5046747;28;20491;-42
2022/03/22 06:00:40;;;;;;;20.83;15.63;;;10.30;97.30;;;;;;5046302;28;20079;-41
2022/03/22 06:03:06;;;;;;;21.70;14.57;;;10.40;97.30;;;;;;5046517;28;20175;-43
2022/03/22 06:05:31;;;;;;;23.55;16.13;;;10.40;97.20;;;;;;5046449;28;20758;-42
2022/03/22 06:07:58;;;;;;;21.70;15.45;;;10.40;97.20;;;;;;5045377;28;20033;-43
2022/03/22 06:10:25;;;;;;;21.10;15.18;;;10.40;97.10;;;;;;5043162;28;20024;-43
2022/03/22 06:12:53;;;;;;;23.15;16.27;;;10.50;97.10;;;;;;5045054;28;20025;-42
2022/03/22 06:15:23;;;;;;;21.92;15.85;;;10.50;97.10;;;;;;5045333;28;20036;-43
2022/03/22 06:17:50;;;;;;;22.23;15.93;;;10.50;97.00;;;;;;5045629;28;20043;-40
2022/03/22 06:20:18;;;;;;;22.20;15.80;;;10.50;97.00;;;;;;5044499;28;20895;-41
2022/03/22 06:22:45;;;;;;;21.13;15.63;;;10.50;96.90;;;;;;5044480;28;20373;-41
2022/03/22 06:25:12;;;;;;;22.23;15.05;;;10.60;96.90;;;;;;5045112;28;20021;-43
2022/03/22 06:27:38;;;;;;;20.15;15.00;;;10.60;96.90;;;;;;5045597;28;20028;-42
2022/03/22 06:30:06;;;;;;;22.63;16.45;;;10.60;96.80;;;;;;5042580;28;20564;-42
2022/03/22 06:32:38;;;;;;;21.90;16.20;;;10.60;96.70;;;;;;5045418;28;20040;-42
2022/03/22 06:35:04;;;;;;;20.40;15.30;;;10.70;96.70;;;;;;5043664;28;20029;-41
2022/03/22 06:37:30;;;;;;;20.50;15.48;;;10.70;96.70;;;;;;5044443;28;20041;-43
2022/03/22 06:39:55;;;;;;;20.63;14.75;;;10.70;96.60;;;;;;5044182;28;20373;-41
2022/03/22 06:42:21;;;;;;;23.67;15.32;;;10.70;96.60;;;;;;5044832;28;20377;-42
2022/03/22 06:44:47;;;;;;;20.80;15.77;;;10.70;96.50;;;;;;5049876;28;20021;-41
2022/03/22 06:47:12;;;;;;;22.40;15.85;;;10.70;96.50;;;;;;5045499;28;20069;-43
2022/03/22 06:49:38;;;;;;;20.85;15.80;;;10.70;96.40;;;;;;5045053;28;20017;-42
2022/03/22 06:52:04;;;;;;;23.13;15.75;;;10.80;96.40;;;;;;5044243;28;20488;-43
2022/03/22 06:54:29;;;;;;;23.70;16.50;;;10.80;96.30;;;;;;5045351;28;20131;-42
2022/03/22 06:56:55;;;;;;;22.33;15.73;;;10.80;96.20;;;;;;5044462;28;20041;-42
2022/03/22 06:59:20;;;;;;;20.67;15.55;;;10.90;96.30;;;;;;5045243;28;20025;-42
2022/03/22 07:01:45;;;;;;;22.63;16.63;;;10.90;96.20;;;;;;5045254;28;20024;-38
2022/03/22 07:04:11;;;;;;;22.17;15.48;;;11.00;96.20;;;;;;5045103;28;20428;-41
2022/03/22 07:06:37;;;;;;;20.02;14.60;;;11.00;96.10;;;;;;5045110;28;20029;-41
2022/03/22 07:09:02;;;;;;;23.23;14.90;;;11.00;96.30;;;;;;5044757;28;20055;-41
2022/03/22 07:14:12;;;;;;;22.92;16.63;;;11.10;96.00;;;;;;5024626;28;20044;-41
2022/03/22 07:16:37;;;;;;;22.85;16.80;;;11.10;95.90;;;;;;5039371;28;20567;-39
2022/03/22 07:19:03;;;;;;;23.35;17.17;;;11.10;95.90;;;;;;5042082;28;20099;-41
2022/03/22 07:21:29;;;;;;;20.80;15.13;;;11.10;95.90;;;;;;5044970;28;20349;-39
2022/03/22 07:23:55;;;;;;;23.02;15.77;;;11.10;95.90;;;;;;5044540;28;20074;-41
2022/03/22 07:26:22;;;;;;;20.02;15.68;;;11.20;95.90;;;;;;5044576;28;20032;-41
2022/03/22 07:28:48;;;;;;;19.67;15.13;;;11.20;95.90;;;;;;5044768;28;20067;-42
2022/03/22 07:31:13;;;;;;;20.70;15.13;;;11.20;95.80;;;;;;5045158;28;20033;-43
2022/03/22 07:33:39;;;;;;;20.00;15.40;;;11.20;95.80;;;;;;5044818;28;20492;-43
2022/03/22 07:36:05;;;;;;;26.42;16.60;;;11.20;95.70;;;;;;5044782;28;20037;-42
2022/03/22 07:38:31;;;;;;;22.75;16.10;;;11.20;95.90;;;;;;5045225;28;20487;-40
2022/03/22 07:40:56;;;;;;;20.15;14.95;;;11.30;95.70;;;;;;5044008;28;20510;-40
2022/03/22 07:43:23;;;;;;;18.60;14.70;;;11.30;95.60;;;;;;5045063;28;20039;-41
2022/03/22 07:45:49;;;;;;;17.27;13.50;;;11.40;95.60;;;;;;5044419;28;20028;-41
2022/03/22 07:48:16;;;;;;;19.67;13.93;;;11.40;95.60;;;;;;5044100;28;20388;-41
2022/03/22 07:53:26;;;;;;;20.15;14.13;;;11.40;95.40;;;;;;5042815;28;20079;-42
2022/03/22 07:55:51;;;;;;;22.67;15.68;;;11.50;95.40;;;;;;5044421;28;20144;-40
2022/03/22 07:58:17;;;;;;;20.13;15.20;;;11.50;95.30;;;;;;5044878;28;20116;-41
2022/03/22 08:00:43;;;;;;;21.33;15.07;;;11.60;95.20;;;;;;5044024;28;20029;-42
2022/03/22 08:03:10;;;;;;;21.63;14.50;;;11.60;95.10;;;;;;5044429;28;20075;-41
2022/03/22 08:05:37;;;;;;;20.85;14.98;;;11.70;95.00;;;;;;5044848;28;20021;-40
2022/03/22 08:08:03;;;;;;;20.08;15.43;;;11.70;95.00;;;;;;5043218;28;20026;-41
2022/03/22 08:10:31;;;;;;;24.13;15.27;;;11.70;94.90;;;;;;5044414;28;20040;-41
2022/03/22 08:12:59;;;;;;;21.40;15.65;;;11.80;94.70;;;;;;5044160;28;20039;-42
2022/03/22 08:15:24;;;;;;;19.10;13.35;;;11.80;94.70;;;;;;5043888;28;20072;-41
2022/03/22 08:17:50;;;;;;;17.92;12.85;;;11.90;94.70;;;;;;5043962;28;20088;-42
2022/03/22 08:20:16;;;;;;;19.30;13.95;;;11.90;94.70;;;;;;5045390;28;20017;-42
2022/03/22 08:22:50;;;;;;;20.02;13.88;;;12.00;94.70;;;;;;5043207;28;20052;-41
2022/03/22 08:25:21;;;;;;;19.23;13.95;;;12.00;94.60;;;;;;5045150;28;20033;-42
2022/03/22 08:27:47;;;;;;;20.67;14.02;;;12.00;94.60;;;;;;5043582;28;20017;-43
2022/03/22 08:30:12;;;;;;;17.08;12.60;;;12.10;94.50;;;;;;5044467;28;20048;-42
2022/03/22 08:32:39;;;;;;;19.85;14.48;;;12.10;94.40;;;;;;5048193;28;20040;-42
2022/03/22 08:35:05;;;;;;;21.98;14.52;;;12.20;94.30;;;;;;5048213;28;20032;-41
2022/03/22 08:37:31;;;;;;;18.40;13.38;;;12.20;94.20;;;;;;5047755;28;20052;-41
2022/03/22 08:39:57;;;;;;;17.90;13.27;;;12.20;94.20;;;;;;5047173;28;20019;-42
2022/03/22 08:42:22;;;;;;;18.48;13.82;;;12.30;94.20;;;;;;5048218;28;20112;-41
2022/03/22 08:44:48;;;;;;;17.63;13.32;;;12.30;94.10;;;;;;5046683;28;20468;-41
2022/03/22 08:47:14;;;;;;;17.35;13.93;;;12.40;94.00;;;;;;5048789;28;20035;-39
2022/03/22 08:49:40;;;;;;;18.05;13.75;;;12.40;94.00;;;;;;5045483;28;20087;-43
2022/03/22 08:52:07;;;;;;;16.38;12.85;;;12.50;93.90;;;;;;5047931;28;20415;-41
2022/03/22 08:54:32;;;;;;;19.42;14.43;;;12.50;93.90;;;;;;5048240;28;20132;-41
2022/03/22 08:56:58;;;;;;;18.45;13.80;;;12.60;93.80;;;;;;5046964;28;20854;-42
2022/03/22 08:59:23;;;;;;;20.90;14.05;;;12.60;93.70;;;;;;5047878;28;20577;-39
2022/03/22 09:01:49;;;;;;;17.90;14.50;;;12.70;93.60;;;;;;5047452;28;20086;-41
2022/03/22 09:06:58;;;;;;;20.63;14.43;;;12.80;93.50;;;;;;5047365;28;20137;-41
2022/03/22 09:09:25;;;;;;;18.40;13.65;;;12.90;93.40;;;;;;5047464;28;20061;-42
2022/03/22 09:11:51;;;;;;;17.42;13.45;;;12.90;93.40;;;;;;5046976;28;20049;-39
2022/03/22 09:14:17;;;;;;;18.45;13.75;;;13.00;93.40;;;;;;5047767;28;20013;-41
2022/03/22 09:16:42;;;;;;;21.20;13.65;;;13.10;93.40;;;;;;5046502;28;20041;-42
2022/03/22 09:19:08;;;;;;;21.95;15.18;;;13.10;93.30;;;;;;5047189;28;20025;-42
2022/03/22 09:21:35;;;;;;;16.63;13.35;;;13.20;93.40;;;;;;5047878;28;20028;-40
2022/03/22 09:24:03;;;;;;;16.95;12.05;;;13.20;93.20;;;;;;5047003;28;20029;-42
2022/03/22 09:26:28;;;;;;;17.20;12.43;;;13.30;93.20;;;;;;5046415;28;20134;-42
2022/03/22 09:28:57;;;;;;;16.85;13.27;;;13.40;93.30;;;;;;5046467;28;20099;-42
2022/03/22 09:31:24;;;;;;;20.55;14.88;;;13.40;93.00;;;;;;5047278;28;20037;-42
2022/03/22 09:33:50;;;;;;;23.05;14.57;;;13.50;92.90;;;;;;5046122;28;20083;-42
2022/03/22 09:36:16;;;;;;;20.33;13.27;;;13.60;92.90;;;;;;5046470;28;20374;-41
2022/03/22 09:38:41;;;;;;;18.92;13.35;;;13.60;92.90;;;;;;5045759;28;20027;-41
2022/03/22 09:41:07;;;;;;;16.15;12.32;;;13.70;92.90;;;;;;5046433;28;20444;-41
2022/03/22 09:43:35;;;;;;;15.88;12.57;;;13.70;92.80;;;;;;5046473;28;20032;-41
2022/03/22 09:46:04;;;;;;;18.17;14.48;;;13.80;92.80;;;;;;5045751;28;20544;-42
2022/03/22 09:48:31;;;;;;;20.00;14.45;;;13.80;92.70;;;;;;5046867;28;20027;-42
2022/03/22 09:53:41;;;;;;;19.38;14.95;;;13.90;92.60;;;;;;5045739;28;20083;-39
2022/03/22 09:56:07;;;;;;;21.00;14.82;;;13.90;92.50;;;;;;5046636;28;20036;-41
2022/03/22 09:58:33;;;;;;;19.10;13.60;;;14.00;92.50;;;;;;5046293;28;20546;-40
2022/03/22 10:00:59;;;;;;;18.10;14.15;;;14.00;92.50;;;;;;5045442;28;20037;-41
2022/03/22 10:03:24;;;;;;;19.17;13.65;;;14.10;92.50;;;;;;5046712;28;20021;-40
2022/03/22 10:06:03;;;;;;;18.17;13.05;;;14.10;92.50;;;;;;5045832;28;20757;-40
2022/03/22 10:08:30;;;;;;;17.42;13.65;;;14.20;92.50;;;;;;5046019;28;20128;-42
2022/03/22 10:10:58;;;;;;;18.02;13.80;;;14.30;92.50;;;;;;5045540;28;20090;-41
2022/03/22 10:13:24;;;;;;;20.08;14.43;;;14.30;92.40;;;;;;5046094;28;20140;-42
2022/03/22 10:15:50;;;;;;;16.25;12.43;;;14.30;92.40;;;;;;5045244;28;20392;-43
2022/03/22 10:18:23;;;;;;;18.15;14.43;;;14.30;92.40;;;;;;5045522;28;20542;-42
2022/03/22 10:21:01;;;;;;;16.45;12.82;;;14.40;92.40;;;;;;5045461;28;20048;-40
2022/03/22 10:23:27;;;;;;;17.08;13.82;;;14.50;92.30;;;;;;5044877;28;20540;-41
2022/03/22 10:26:08;;;;;;;20.20;13.18;;;14.50;92.20;;;;;;5045636;28;20155;-41
2022/03/22 10:28:34;;;;;;;18.75;14.23;;;14.60;92.20;;;;;;5045088;28;20029;-43
2022/03/22 10:31:00;;;;;;;17.77;13.05;;;14.60;92.20;;;;;;5045244;28;20425;-40
2022/03/22 10:33:26;;;;;;;19.42;13.70;;;14.70;92.10;;;;;;5045735;28;20036;-41
2022/03/22 10:35:52;;;;;;;17.90;13.70;;;14.80;92.10;;;;;;5044837;28;20029;-41
2022/03/22 10:38:19;;;;;;;19.20;14.13;;;14.80;92.00;;;;;;5045575;28;20029;-41
2022/03/22 10:40:47;;;;;;;20.00;14.38;;;14.80;91.80;;;;;;5045582;28;20490;-40
2022/03/22 10:43:15;;;;;;;21.45;14.80;;;14.90;91.80;;;;;;5044651;28;20024;-40
2022/03/22 10:45:49;;;;;;;21.27;14.35;;;15.00;91.50;;;;;;5044701;28;20468;-41
2022/03/22 10:48:41;;;;;;;18.77;13.20;;;15.00;91.40;;;;;;5045606;28;20388;-41
2022/03/22 10:51:07;;;;;;;19.15;13.10;;;15.10;91.30;;;;;;5043558;28;20058;-40
2022/03/22 10:53:34;;;;;;;19.90;14.70;;;15.20;91.30;;;;;;5044685;28;20060;-39
2022/03/22 10:56:02;;;;;;;17.75;14.10;;;15.30;91.00;;;;;;5044590;28;20036;-40
2022/03/22 10:58:29;;;;;;;18.08;13.45;;;15.30;91.00;;;;;;5045231;28;20107;-41
2022/03/22 11:00:56;;;;;;;16.15;12.60;;;15.40;91.00;;;;;;5044802;28;20037;-41
2022/03/22 11:03:24;;;;;;;18.73;12.57;;;15.40;91.20;;;;;;5044698;28;20024;-41
2022/03/22 11:05:52;;;;;;;17.98;12.55;;;15.50;91.00;;;;;;5044981;28;20115;-41
2022/03/22 11:08:19;;;;;;;14.75;11.40;;;15.50;91.00;;;;;;5044478;28;20032;-41
2022/03/22 11:10:46;;;;;;;17.27;12.63;;;15.60;91.00;;;;;;5044451;28;20104;-41
2022/03/22 11:13:12;;;;;;;20.38;13.98;;;15.60;90.90;;;;;;5045440;28;20025;-43
2022/03/22 11:15:40;;;;;;;17.88;13.57;;;15.70;90.70;;;;;;5045266;28;20036;-42
2022/03/22 11:18:07;;;;;;;17.55;13.20;;;15.80;90.50;;;;;;5044697;28;20480;-42
2022/03/22 11:20:33;;;;;;;19.90;14.00;;;15.80;90.40;;;;;;5045132;28;20021;-40
2022/03/22 11:23:00;;;;;;;19.48;13.02;;;15.90;90.30;;;;;;5045139;28;20463;-43
2022/03/22 11:25:36;;;;;;;17.15;13.00;;;15.90;90.30;;;;;;5044178;28;20435;-42
2022/03/22 11:28:09;;;;;;;19.02;13.95;;;16.00;90.60;;;;;;5044709;28;20053;-40
2022/03/22 11:30:37;;;;;;;18.27;13.57;;;16.00;90.20;;;;;;5044852;28;20039;-40
2022/03/22 11:35:56;;;;;;;17.17;12.93;;;16.10;90.10;;;;;;5044190;28;20056;-39
2022/03/22 11:38:39;;;;;;;16.90;12.15;;;16.20;90.00;;;;;;5045078;28;20389;-42
2022/03/22 11:44:07;;;;;;;18.60;13.10;;;16.30;89.20;;;;;;5044464;28;20107;-40
2022/03/22 11:46:32;;;;;;;20.52;14.13;;;16.40;89.10;;;;;;5044433;28;20124;-42
2022/03/22 11:49:11;;;;;;;17.30;12.70;;;16.50;89.70;;;;;;5044789;28;20112;-40
2022/03/22 11:52:22;;;;;;;15.77;11.85;;;16.60;89.10;;;;;;5041554;28;20819;-41
2022/03/22 11:54:58;;;;;;;18.95;13.05;;;16.60;88.80;;;;;;5043421;28;20091;-41
2022/03/22 11:57:24;;;;;;;17.13;12.30;;;16.70;88.80;;;;;;5044609;28;20186;-42
2022/03/22 11:59:52;;;;;;;16.73;12.88;;;16.70;88.40;;;;;;5043463;28;20123;-40
2022/03/22 12:02:26;;;;;;;21.65;13.80;;;16.70;88.50;;;;;;5044868;28;20032;-41
2022/03/22 12:04:59;;;;;;;21.52;14.30;;;16.80;88.30;;;;;;5044768;28;20515;-41
2022/03/22 12:07:32;;;;;;;18.17;12.00;;;16.90;88.20;;;;;;5048879;28;20021;-42
2022/03/22 12:10:11;;;;;;;18.10;12.00;;;16.90;88.00;;;;;;5048135;28;20578;-41
2022/03/22 12:12:38;;;;;;;17.65;13.18;;;16.90;87.70;;;;;;5049042;28;20028;-42
2022/03/22 12:15:06;;;;;;;16.20;11.23;;;17.00;87.30;;;;;;5047576;28;20416;-41
2022/03/22 12:17:32;;;;;;;18.92;12.05;;;17.00;87.40;;;;;;5049483;28;20443;-42
2022/03/22 12:20:08;;;;;;;15.43;11.13;;;17.00;87.50;;;;;;5048003;28;20565;-43
2022/03/22 12:22:38;;;;;;;17.20;11.55;;;17.00;87.30;;;;;;5044780;28;20056;-40
2022/03/22 12:25:04;;;;;;;15.35;11.32;;;17.00;86.70;;;;;;5048699;28;20029;-42
2022/03/22 12:27:30;;;;;;;16.80;11.05;;;17.10;86.90;;;;;;5048240;28;20040;-42
2022/03/22 12:29:56;;;;;;;20.35;11.88;;;17.00;86.90;;;;;;5048485;28;20743;-39
2022/03/22 12:32:25;;;;;;;16.48;11.45;;;17.10;87.00;;;;;;5048275;28;20029;-41
2022/03/22 12:34:51;;;;;;;14.63;11.15;;;17.10;87.00;;;;;;5048173;28;20025;-42
2022/03/22 12:37:18;;;;;;;16.15;11.50;;;17.20;86.80;;;;;;5048659;28;20029;-41
2022/03/22 12:39:45;;;;;;;15.40;11.05;;;17.20;86.50;;;;;;5048108;28;20575;-42
2022/03/22 12:42:13;;;;;;;15.65;11.50;;;17.20;86.40;;;;;;5047693;28;20032;-42
2022/03/22 12:44:40;;;;;;;18.80;12.20;;;17.30;85.70;;;;;;5047988;28;20037;-41
2022/03/22 12:47:09;;;;;;;17.77;12.55;;;17.40;85.40;;;;;;5047644;28;20104;-40
2022/03/22 12:49:39;;;;;;;15.45;11.30;;;17.40;85.30;;;;;;5047580;28;20702;-43
2022/03/22 12:52:07;;;;;;;17.55;12.25;;;17.40;85.10;;;;;;5046992;28;20037;-41
2022/03/22 12:54:35;;;;;;;17.60;11.73;;;17.50;84.30;;;;;;5047743;28;20528;-39
2022/03/22 12:57:03;;;;;;;15.60;10.93;;;17.60;83.70;;;;;;5046586;28;20035;-41
2022/03/22 12:59:30;;;;;;;15.07;10.95;;;17.70;82.50;;;;;;5048228;28;20126;-42
2022/03/22 13:01:57;;;;;;;17.75;11.02;;;17.80;81.80;;;;;;5047038;28;20477;-41
2022/03/22 13:04:29;;;;;;;15.35;10.13;;;17.90;80.70;;;;;;5047565;28;20384;-41